Time;durP1;ratioP1;P1;durP2;ratioP2;P2;SDS_P1;SDS_P2;PMS_P1;PMS_P2;Temp;Humidity;BMP_temperature;BMP_pressure;BME280_temperature;BME280_humidity;BME280_pressure;Samples;Min_cycle;Max_cycle;Signal;HPM_P1;HPM_P2
2023/06/16 00:01:23;;;;;;;6.78;3.63;;;25.20;52.50;;;;;;4986766;28;87664;-85
2023/06/16 00:03:49;;;;;;;5.32;3.13;;;25.20;52.50;;;;;;4986520;28;87741;-85
2023/06/16 00:06:15;;;;;;;5.15;2.95;;;25.10;52.40;;;;;;4986381;28;88675;-85
2023/06/16 00:08:44;;;;;;;3.75;2.60;;;25.20;52.20;;;;;;4983730;28;88131;-84
2023/06/16 00:11:10;;;;;;;5.40;3.73;;;25.20;52.30;;;;;;4983218;28;92051;-84
2023/06/16 00:13:36;;;;;;;5.65;3.08;;;25.20;52.20;;;;;;4983402;28;88074;-84
2023/06/16 00:16:01;;;;;;;5.38;3.15;;;25.10;52.30;;;;;;4982545;28;87382;-85
2023/06/16 00:18:29;;;;;;;5.63;3.20;;;25.10;52.20;;;;;;4981251;28;89361;-84
2023/06/16 00:20:57;;;;;;;4.68;2.92;;;25.10;52.20;;;;;;4983069;28;89047;-84
2023/06/16 00:23:23;;;;;;;5.57;3.40;;;25.10;52.20;;;;;;4984064;28;89643;-84
2023/06/16 00:25:49;;;;;;;7.38;3.70;;;25.10;52.30;;;;;;4974756;28;87508;-85
2023/06/16 00:28:15;;;;;;;3.20;2.42;;;25.10;52.30;;;;;;4982761;28;87274;-83
2023/06/16 00:30:41;;;;;;;6.30;3.42;;;25.10;52.30;;;;;;4984011;28;91098;-84
2023/06/16 00:33:06;;;;;;;4.45;3.10;;;25.10;52.20;;;;;;4983082;28;87814;-84
2023/06/16 00:35:32;;;;;;;6.13;3.28;;;25.10;52.10;;;;;;4984575;28;87540;-84
2023/06/16 00:37:58;;;;;;;4.78;3.00;;;25.10;52.00;;;;;;4984265;28;86609;-85
2023/06/16 00:40:23;;;;;;;4.72;2.90;;;25.10;52.50;;;;;;4983153;28;87501;-84
2023/06/16 00:42:49;;;;;;;5.65;3.33;;;25.10;52.20;;;;;;4983064;28;87674;-84
2023/06/16 00:45:14;;;;;;;4.40;3.17;;;25.10;52.30;;;;;;4982302;28;88488;-83
2023/06/16 00:47:40;;;;;;;4.50;2.83;;;25.00;52.10;;;;;;4985311;28;87124;-84
2023/06/16 00:50:07;;;;;;;4.53;3.15;;;25.00;52.20;;;;;;4981347;28;88250;-84
2023/06/16 00:52:37;;;;;;;3.25;2.60;;;25.00;52.20;;;;;;4980834;28;91835;-85
2023/06/16 00:55:03;;;;;;;4.85;3.00;;;25.10;52.30;;;;;;4987633;28;87733;-85
2023/06/16 00:57:33;;;;;;;5.53;2.70;;;25.00;52.10;;;;;;4983286;28;88042;-83
2023/06/16 00:59:59;;;;;;;4.82;2.90;;;25.00;52.20;;;;;;4983078;28;87770;-84
2023/06/16 01:02:26;;;;;;;4.82;3.08;;;25.00;52.30;;;;;;4988141;28;87207;-84
2023/06/16 01:04:54;;;;;;;3.90;2.80;;;25.00;52.20;;;;;;4983045;28;87955;-85
2023/06/16 01:07:33;;;;;;;5.90;3.22;;;25.00;52.20;;;;;;4983506;28;87783;-84
2023/06/16 01:10:19;;;;;;;4.38;2.97;;;25.00;52.20;;;;;;4981762;28;89390;-85
2023/06/16 01:13:12;;;;;;;3.42;2.53;;;25.00;52.20;;;;;;4982957;28;90094;-84
2023/06/16 01:15:42;;;;;;;4.47;2.78;;;25.00;52.30;;;;;;4982762;28;87783;-84
2023/06/16 01:18:08;;;;;;;5.05;2.60;;;25.00;52.30;;;;;;4981841;28;87860;-84
2023/06/16 01:21:02;;;;;;;4.00;3.10;;;25.00;52.20;;;;;;4982104;28;89419;-84
2023/06/16 01:24:04;;;;;;;4.25;2.78;;;25.00;52.20;;;;;;4984120;28;90788;-84
2023/06/16 01:26:32;;;;;;;3.72;2.50;;;25.00;52.30;;;;;;4982229;28;87890;-84
2023/06/16 01:29:03;;;;;;;6.55;3.47;;;25.00;52.30;;;;;;4983886;28;86982;-85
2023/06/16 01:31:31;;;;;;;4.35;3.03;;;25.00;52.30;;;;;;4983010;28;89513;-84
2023/06/16 01:33:59;;;;;;;3.53;2.38;;;25.00;52.40;;;;;;4981414;28;87948;-84
2023/06/16 01:36:25;;;;;;;3.97;3.05;;;25.00;52.40;;;;;;4980813;28;88802;-84
2023/06/16 01:38:53;;;;;;;3.90;2.85;;;24.90;52.30;;;;;;4983693;28;87187;-83
2023/06/16 01:41:19;;;;;;;3.70;2.50;;;25.00;52.40;;;;;;4983278;28;87596;-84
2023/06/16 01:43:46;;;;;;;6.93;3.33;;;24.90;52.00;;;;;;4981572;28;87348;-83
2023/06/16 01:46:13;;;;;;;4.05;3.05;;;24.90;52.20;;;;;;4983336;28;87789;-83
2023/06/16 01:48:39;;;;;;;4.78;2.58;;;24.90;52.10;;;;;;4980088;28;88199;-83
2023/06/16 01:51:05;;;;;;;5.43;2.70;;;24.90;52.10;;;;;;4982560;28;87779;-83
2023/06/16 01:53:31;;;;;;;4.25;2.80;;;24.90;52.10;;;;;;4982322;28;87803;-83
2023/06/16 01:55:56;;;;;;;3.95;2.70;;;24.90;52.20;;;;;;4981936;28;91526;-85
2023/06/16 01:58:25;;;;;;;4.85;3.22;;;24.90;52.10;;;;;;4979388;28;88398;-83
2023/06/16 02:01:04;;;;;;;4.80;2.70;;;24.90;52.20;;;;;;4981419;28;90045;-82
2023/06/16 02:03:54;;;;;;;3.60;2.47;;;24.90;52.30;;;;;;4981495;28;88267;-83
2023/06/16 02:06:33;;;;;;;3.75;2.50;;;24.90;52.20;;;;;;4982908;28;87687;-84
2023/06/16 02:09:02;;;;;;;3.00;2.50;;;24.90;52.30;;;;;;4981393;28;87942;-83
2023/06/16 02:11:29;;;;;;;4.03;2.58;;;24.90;52.30;;;;;;4981485;28;88524;-83
2023/06/16 02:13:55;;;;;;;6.10;3.00;;;24.90;52.00;;;;;;4981025;28;88293;-83
2023/06/16 02:16:21;;;;;;;4.05;2.72;;;24.90;52.20;;;;;;4981024;28;87891;-83
2023/06/16 02:18:49;;;;;;;4.38;2.67;;;24.90;52.10;;;;;;4984433;28;93735;-83
2023/06/16 02:21:15;;;;;;;5.63;2.50;;;24.90;52.30;;;;;;4981722;28;88161;-84
2023/06/16 02:23:41;;;;;;;3.90;2.67;;;24.90;52.20;;;;;;4981031;28;87764;-84
2023/06/16 02:26:06;;;;;;;5.07;2.78;;;24.90;52.10;;;;;;4981097;28;88884;-84
2023/06/16 02:28:32;;;;;;;5.03;3.20;;;24.90;52.20;;;;;;4982009;28;87393;-83
2023/06/16 02:30:57;;;;;;;3.97;2.53;;;24.90;52.10;;;;;;4979214;28;87999;-84
2023/06/16 02:33:23;;;;;;;6.45;2.60;;;24.90;52.10;;;;;;4981508;28;90284;-84
2023/06/16 02:35:48;;;;;;;3.55;2.83;;;24.90;52.30;;;;;;4980761;28;88059;-83
2023/06/16 02:38:14;;;;;;;4.70;2.50;;;24.90;52.20;;;;;;4983467;28;87335;-83
2023/06/16 02:40:40;;;;;;;3.83;2.22;;;24.90;52.10;;;;;;4983284;28;87582;-84
2023/06/16 02:43:06;;;;;;;3.88;2.60;;;24.90;52.30;;;;;;4980644;28;87098;-83
2023/06/16 02:45:31;;;;;;;3.65;2.63;;;24.90;52.30;;;;;;4978724;28;88100;-83
2023/06/16 02:47:57;;;;;;;2.95;2.30;;;24.80;52.20;;;;;;4981085;28;87373;-83
2023/06/16 02:50:22;;;;;;;2.70;2.13;;;24.80;52.00;;;;;;4981770;28;89108;-83
2023/06/16 02:52:49;;;;;;;4.93;2.85;;;24.80;52.20;;;;;;4984539;28;87585;-83
2023/06/16 02:55:15;;;;;;;3.63;2.58;;;24.80;52.20;;;;;;4981659;28;87499;-84
2023/06/16 02:57:41;;;;;;;3.15;2.22;;;24.80;52.20;;;;;;4985112;28;87510;-83
2023/06/16 03:00:10;;;;;;;2.38;1.90;;;24.80;52.30;;;;;;4980060;28;88170;-83
2023/06/16 03:02:36;;;;;;;3.47;2.55;;;24.80;52.10;;;;;;4997248;28;87766;-83
2023/06/16 03:05:03;;;;;;;4.75;2.95;;;24.80;52.20;;;;;;4983340;28;87475;-84
2023/06/16 03:07:31;;;;;;;3.20;2.10;;;24.80;52.10;;;;;;4984038;28;86898;-84
2023/06/16 03:09:57;;;;;;;4.07;2.70;;;24.80;52.20;;;;;;4984002;28;89010;-83
2023/06/16 03:12:23;;;;;;;3.85;2.70;;;24.80;52.10;;;;;;4984879;28;87906;-83
2023/06/16 03:14:48;;;;;;;4.30;2.78;;;24.80;52.30;;;;;;4985037;28;88547;-85
2023/06/16 03:17:14;;;;;;;4.47;2.47;;;24.80;52.20;;;;;;4983575;28;89653;-83
2023/06/16 03:19:42;;;;;;;3.88;2.40;;;24.80;52.20;;;;;;4982916;28;87340;-84
2023/06/16 03:22:07;;;;;;;3.03;2.30;;;24.80;52.10;;;;;;4985031;28;87751;-83
2023/06/16 03:24:33;;;;;;;3.70;2.38;;;24.80;52.30;;;;;;4984900;28;88195;-83
2023/06/16 03:26:59;;;;;;;3.50;2.22;;;24.70;52.10;;;;;;4985136;28;89397;-83
2023/06/16 03:29:25;;;;;;;3.08;2.22;;;24.70;52.30;;;;;;4983519;28;88027;-83
2023/06/16 03:31:51;;;;;;;3.45;2.38;;;24.80;52.40;;;;;;4982459;28;87163;-83
2023/06/16 03:34:16;;;;;;;2.83;2.50;;;24.70;52.30;;;;;;4983393;28;91610;-84
2023/06/16 03:36:42;;;;;;;3.72;2.38;;;24.70;52.30;;;;;;4983945;28;88051;-83
2023/06/16 03:39:08;;;;;;;2.95;2.50;;;24.70;52.30;;;;;;4983016;28;88740;-83
2023/06/16 03:41:34;;;;;;;3.38;2.30;;;24.70;52.30;;;;;;4981604;28;90407;-83
2023/06/16 03:44:00;;;;;;;3.13;2.38;;;24.70;52.40;;;;;;4981654;28;88553;-83
2023/06/16 03:46:31;;;;;;;3.22;2.40;;;24.70;52.30;;;;;;4980841;28;88215;-83
2023/06/16 03:48:57;;;;;;;3.42;2.30;;;24.70;52.10;;;;;;4982997;28;87479;-84
2023/06/16 03:51:24;;;;;;;4.85;2.47;;;24.70;52.10;;;;;;4983275;28;88106;-83
2023/06/16 03:53:51;;;;;;;2.95;2.05;;;24.70;52.10;;;;;;4982851;28;87823;-82
2023/06/16 03:56:17;;;;;;;2.42;2.00;;;24.70;52.10;;;;;;4982124;28;89575;-84
2023/06/16 03:58:42;;;;;;;4.72;2.42;;;24.70;51.90;;;;;;4984097;28;87615;-83
2023/06/16 04:01:09;;;;;;;2.80;2.50;;;24.70;52.00;;;;;;4985419;28;87525;-83
2023/06/16 04:03:35;;;;;;;3.40;2.47;;;24.70;52.00;;;;;;4982590;28;88698;-83
2023/06/16 04:06:01;;;;;;;4.47;2.50;;;24.70;52.10;;;;;;4982424;28;87766;-83
2023/06/16 04:08:27;;;;;;;4.97;2.78;;;24.70;52.10;;;;;;4984303;28;87931;-85
2023/06/16 04:10:57;;;;;;;2.97;2.10;;;24.70;52.00;;;;;;4983631;28;87619;-83
2023/06/16 04:13:23;;;;;;;2.45;2.00;;;24.70;52.20;;;;;;4986655;28;86955;-83
2023/06/16 04:15:49;;;;;;;2.55;2.22;;;24.70;52.70;;;;;;4984319;28;87517;-83
2023/06/16 04:18:15;;;;;;;2.33;2.13;;;24.70;52.30;;;;;;4983417;28;87643;-83
2023/06/16 04:20:40;;;;;;;4.18;2.40;;;24.70;52.10;;;;;;4985014;28;87725;-83
2023/06/16 04:23:09;;;;;;;2.70;2.10;;;24.70;52.20;;;;;;4984830;28;87853;-83
2023/06/16 04:25:35;;;;;;;2.90;2.23;;;24.70;52.00;;;;;;4984809;28;87497;-84
2023/06/16 04:28:02;;;;;;;2.75;1.98;;;24.70;52.10;;;;;;4981742;28;88641;-83
2023/06/16 04:30:30;;;;;;;2.70;2.20;;;24.60;52.20;;;;;;4983664;28;88500;-83
2023/06/16 04:32:58;;;;;;;2.50;2.25;;;24.70;52.30;;;;;;4982636;28;86950;-83
2023/06/16 04:35:27;;;;;;;3.93;2.47;;;24.70;52.30;;;;;;4984033;28;87542;-84
2023/06/16 04:37:57;;;;;;;4.33;2.47;;;24.60;52.30;;;;;;4983688;28;87649;-84
2023/06/16 04:40:26;;;;;;;3.58;2.30;;;24.70;52.30;;;;;;4981585;28;88015;-84
2023/06/16 04:42:52;;;;;;;3.25;2.13;;;24.70;52.20;;;;;;4982106;28;87767;-84
2023/06/16 04:45:19;;;;;;;2.97;2.67;;;24.70;52.80;;;;;;4975812;28;89111;-83
2023/06/16 04:47:46;;;;;;;2.85;1.67;;;24.70;52.10;;;;;;4993494;28;87835;-83
2023/06/16 04:50:12;;;;;;;2.97;2.05;;;24.70;52.20;;;;;;4986700;28;87405;-83
2023/06/16 04:52:38;;;;;;;2.85;2.22;;;24.70;52.20;;;;;;4982343;28;88043;-81
2023/06/16 04:55:05;;;;;;;4.40;2.92;;;24.70;52.00;;;;;;4981413;28;88194;-82
2023/06/16 04:57:31;;;;;;;6.88;3.38;;;24.80;49.20;;;;;;4981643;28;87847;-82
2023/06/16 04:59:58;;;;;;;7.40;4.07;;;24.70;47.70;;;;;;4982632;28;87711;-82
2023/06/16 05:02:24;;;;;;;7.85;3.75;;;24.60;47.00;;;;;;4982738;28;87170;-82
2023/06/16 05:04:50;;;;;;;10.15;3.40;;;24.50;46.80;;;;;;4981986;28;87808;-84
2023/06/16 05:07:15;;;;;;;6.25;3.65;;;24.40;46.70;;;;;;4981795;28;87772;-83
2023/06/16 05:09:41;;;;;;;9.25;3.90;;;24.40;46.70;;;;;;4979894;28;88353;-86
2023/06/16 05:12:07;;;;;;;6.93;3.60;;;24.40;46.20;;;;;;4982059;28;87623;-85
2023/06/16 05:14:33;;;;;;;9.15;3.72;;;24.30;46.10;;;;;;4981589;28;87999;-82
2023/06/16 05:17:00;;;;;;;6.47;4.00;;;24.30;45.80;;;;;;4983001;28;89123;-83
2023/06/16 05:19:26;;;;;;;8.82;3.97;;;24.30;45.80;;;;;;4983138;28;89836;-83
2023/06/16 05:21:51;;;;;;;9.98;4.20;;;24.30;45.90;;;;;;4982624;28;89407;-83
2023/06/16 05:24:17;;;;;;;8.02;4.45;;;24.30;46.00;;;;;;4983238;28;87871;-83
2023/06/16 05:26:43;;;;;;;8.02;3.88;;;24.20;46.20;;;;;;4983852;28;87586;-82
2023/06/16 05:29:08;;;;;;;11.93;4.38;;;24.20;46.30;;;;;;4982944;28;87557;-84
2023/06/16 05:31:35;;;;;;;7.43;3.72;;;24.20;46.50;;;;;;4980011;28;88213;-83
2023/06/16 05:34:01;;;;;;;5.07;3.70;;;24.20;46.40;;;;;;4982036;28;89537;-83
2023/06/16 05:36:29;;;;;;;6.65;3.75;;;24.20;46.30;;;;;;4981332;28;87736;-85
2023/06/16 05:38:55;;;;;;;6.22;4.05;;;24.20;46.30;;;;;;4981450;28;87936;-83
2023/06/16 05:41:24;;;;;;;7.40;3.97;;;24.20;46.40;;;;;;4983028;28;88482;-84
2023/06/16 05:43:51;;;;;;;8.00;3.60;;;24.20;46.00;;;;;;4982825;28;87439;-84
2023/06/16 05:46:17;;;;;;;7.50;4.40;;;24.20;45.50;;;;;;4982128;28;87560;-83
2023/06/16 05:48:43;;;;;;;11.57;4.97;;;24.20;44.80;;;;;;4982068;28;87892;-83
2023/06/16 05:51:09;;;;;;;9.00;4.90;;;24.30;44.60;;;;;;4982009;28;87367;-83
2023/06/16 05:53:34;;;;;;;11.38;4.90;;;24.20;43.90;;;;;;4981799;28;88215;-83
2023/06/16 05:56:00;;;;;;;8.13;4.88;;;24.20;44.10;;;;;;4983117;28;88251;-85
2023/06/16 05:58:26;;;;;;;5.40;4.38;;;24.20;44.10;;;;;;4982048;28;87197;-83
2023/06/16 06:00:51;;;;;;;7.03;4.75;;;24.10;43.90;;;;;;4981221;28;87621;-84
2023/06/16 06:03:17;;;;;;;9.88;4.43;;;24.10;44.00;;;;;;4984377;28;87549;-84
2023/06/16 06:05:42;;;;;;;12.38;4.90;;;24.10;43.90;;;;;;4984102;28;89155;-85
2023/06/16 06:08:08;;;;;;;8.13;4.20;;;24.10;43.90;;;;;;4980595;28;89353;-83
2023/06/16 06:10:34;;;;;;;9.15;5.07;;;24.10;44.20;;;;;;4981373;28;87410;-84
2023/06/16 06:13:03;;;;;;;8.00;4.55;;;24.10;44.20;;;;;;4981321;28;87826;-83
2023/06/16 06:15:29;;;;;;;7.13;4.97;;;24.20;44.50;;;;;;4980532;28;88511;-83
2023/06/16 06:17:54;;;;;;;8.10;4.80;;;24.30;44.20;;;;;;4978905;28;88075;-83
2023/06/16 06:20:21;;;;;;;7.75;4.22;;;24.30;43.80;;;;;;4979186;28;87507;-83
2023/06/16 06:22:46;;;;;;;10.95;4.70;;;24.30;43.60;;;;;;4980391;28;86938;-87
2023/06/16 06:25:13;;;;;;;10.30;5.32;;;24.40;43.80;;;;;;4985708;28;87229;-84
2023/06/16 06:27:39;;;;;;;8.93;5.15;;;24.40;43.80;;;;;;4987437;28;87967;-82
2023/06/16 06:30:06;;;;;;;11.20;5.13;;;24.40;43.50;;;;;;4982712;28;88560;-85
2023/06/16 06:32:32;;;;;;;9.65;4.85;;;24.40;43.20;;;;;;4988783;28;90142;-84
2023/06/16 06:34:57;;;;;;;12.93;5.43;;;24.40;43.20;;;;;;4985910;28;87219;-82
2023/06/16 06:37:29;;;;;;;7.32;4.38;;;24.40;43.10;;;;;;4985877;28;87871;-83
2023/06/16 06:39:55;;;;;;;12.38;4.47;;;24.40;42.80;;;;;;4981974;28;87976;-82
2023/06/16 06:42:21;;;;;;;13.63;4.68;;;24.40;43.10;;;;;;4984296;28;87198;-82
2023/06/16 06:44:47;;;;;;;8.05;4.53;;;24.40;43.30;;;;;;4989085;28;87161;-82
2023/06/16 06:47:12;;;;;;;12.25;4.63;;;24.40;43.50;;;;;;4986716;28;87575;-82
2023/06/16 06:49:38;;;;;;;9.23;4.57;;;24.50;43.60;;;;;;4985119;28;87962;-82
2023/06/16 06:52:04;;;;;;;7.63;4.82;;;24.50;43.90;;;;;;4988634;28;87297;-83
2023/06/16 06:54:30;;;;;;;11.10;4.93;;;24.50;44.60;;;;;;4987194;28;89263;-83
2023/06/16 06:56:55;;;;;;;104.88;26.23;;;24.50;43.60;;;;;;4984678;28;89004;-86
2023/06/16 06:59:21;;;;;;;79.45;20.50;;;24.50;43.70;;;;;;4985909;28;87569;-83
2023/06/16 07:01:47;;;;;;;58.65;15.10;;;24.50;43.80;;;;;;4985275;28;87698;-85
2023/06/16 07:04:13;;;;;;;46.63;11.60;;;24.40;44.10;;;;;;4986073;28;87620;-83
2023/06/16 07:06:38;;;;;;;28.65;10.27;;;24.40;44.00;;;;;;4984270;28;88300;-82
2023/06/16 07:09:04;;;;;;;32.30;9.75;;;24.40;44.70;;;;;;4983629;28;87477;-84
2023/06/16 07:11:29;;;;;;;27.20;9.27;;;24.30;45.00;;;;;;4985031;28;86515;-84
2023/06/16 07:13:55;;;;;;;31.33;8.90;;;24.30;44.50;;;;;;4983782;28;88069;-83
2023/06/16 07:16:21;;;;;;;22.85;8.50;;;24.30;44.90;;;;;;4984570;28;87970;-83
2023/06/16 07:18:50;;;;;;;26.45;8.15;;;24.30;44.90;;;;;;4983673;28;88516;-83
2023/06/16 07:21:16;;;;;;;21.13;6.93;;;24.30;45.20;;;;;;4985448;28;87825;-83
2023/06/16 07:23:41;;;;;;;22.25;6.90;;;24.20;45.00;;;;;;4983176;28;89406;-83
2023/06/16 07:26:07;;;;;;;15.00;6.80;;;24.20;45.50;;;;;;4986286;28;87628;-84
2023/06/16 07:28:33;;;;;;;17.15;6.50;;;24.20;45.60;;;;;;4985953;28;87930;-84
2023/06/16 07:30:58;;;;;;;16.67;6.32;;;24.20;45.70;;;;;;4984655;28;87584;-83
2023/06/16 07:33:24;;;;;;;14.38;6.00;;;24.20;45.70;;;;;;4984043;28;87855;-82
2023/06/16 07:35:50;;;;;;;14.48;6.72;;;24.20;45.70;;;;;;4982313;28;88696;-82
2023/06/16 07:38:16;;;;;;;14.65;5.78;;;24.30;45.80;;;;;;4979846;28;88753;-82
2023/06/16 07:40:42;;;;;;;15.43;6.03;;;24.30;45.70;;;;;;4985180;28;88444;-83
2023/06/16 07:43:07;;;;;;;16.30;5.80;;;24.30;45.40;;;;;;4985792;28;89267;-83
2023/06/16 07:45:33;;;;;;;14.10;4.80;;;24.30;45.10;;;;;;4987650;28;88569;-86
2023/06/16 07:48:02;;;;;;;17.55;5.63;;;24.30;45.40;;;;;;4986812;28;88304;-83
2023/06/16 07:50:28;;;;;;;17.65;5.70;;;24.30;45.50;;;;;;4987646;28;88441;-82
2023/06/16 07:52:54;;;;;;;12.82;5.38;;;24.30;45.60;;;;;;4987939;28;88005;-82
2023/06/16 07:55:19;;;;;;;12.00;4.90;;;24.30;45.50;;;;;;4984460;28;88296;-84
2023/06/16 07:57:45;;;;;;;14.30;4.25;;;24.30;45.60;;;;;;4982620;28;88050;-81
2023/06/16 08:00:13;;;;;;;13.70;5.15;;;24.40;45.70;;;;;;4984990;28;86781;-83
2023/06/16 08:02:39;;;;;;;13.77;5.07;;;24.50;45.70;;;;;;4986402;28;89489;-83
2023/06/16 08:05:06;;;;;;;9.10;4.13;;;24.40;45.40;;;;;;4982832;28;87572;-84
2023/06/16 08:07:31;;;;;;;13.68;4.38;;;24.40;44.30;;;;;;4984274;28;89847;-84
2023/06/16 08:09:57;;;;;;;11.60;4.70;;;24.40;44.80;;;;;;4981615;28;87953;-84
2023/06/16 08:12:22;;;;;;;8.70;4.25;;;24.40;44.80;;;;;;4983167;28;88811;-84
2023/06/16 08:14:48;;;;;;;9.68;4.20;;;24.40;44.60;;;;;;4983622;28;88427;-84
2023/06/16 08:17:14;;;;;;;11.43;3.75;;;24.50;44.20;;;;;;4984163;28;87669;-84
2023/06/16 08:19:39;;;;;;;11.27;3.90;;;24.60;44.10;;;;;;4982838;28;87796;-83
2023/06/16 08:22:05;;;;;;;11.05;4.00;;;24.60;44.10;;;;;;4983032;28;87646;-84
2023/06/16 08:24:31;;;;;;;7.85;3.95;;;24.70;43.80;;;;;;4984153;28;87399;-81
2023/06/16 08:26:57;;;;;;;12.02;3.78;;;24.70;43.90;;;;;;4984797;28;88867;-83
2023/06/16 08:29:22;;;;;;;12.90;4.05;;;24.60;43.80;;;;;;4981319;28;88030;-83
2023/06/16 08:31:48;;;;;;;11.25;4.32;;;24.70;44.20;;;;;;4982299;28;92057;-84
2023/06/16 08:34:14;;;;;;;7.57;4.32;;;24.70;44.00;;;;;;4985246;28;88200;-86
2023/06/16 08:36:40;;;;;;;13.65;3.97;;;24.70;44.20;;;;;;4981884;28;87639;-83
2023/06/16 08:39:07;;;;;;;9.60;3.58;;;24.70;44.10;;;;;;4981957;28;87486;-83
2023/06/16 08:41:36;;;;;;;11.60;3.75;;;24.70;44.00;;;;;;4983550;28;87897;-84
2023/06/16 08:44:03;;;;;;;8.20;4.00;;;24.70;44.30;;;;;;4986118;28;87814;-83
2023/06/16 08:46:29;;;;;;;11.73;3.20;;;24.70;44.40;;;;;;4986112;28;87771;-84
2023/06/16 08:48:55;;;;;;;9.75;4.00;;;24.70;44.50;;;;;;4981620;28;86936;-84
2023/06/16 08:51:24;;;;;;;8.38;3.92;;;24.70;44.60;;;;;;4982864;28;90427;-84
2023/06/16 08:54:00;;;;;;;7.97;3.90;;;24.80;45.00;;;;;;4983236;28;87805;-83
2023/06/16 08:56:31;;;;;;;11.02;4.13;;;24.70;45.60;;;;;;4983934;28;88696;-85
2023/06/16 08:59:00;;;;;;;8.18;3.83;;;24.80;46.40;;;;;;4983810;28;88379;-84
2023/06/16 09:01:26;;;;;;;9.83;4.57;;;24.80;46.10;;;;;;4984961;28;88833;-85
2023/06/16 09:03:53;;;;;;;9.60;4.20;;;24.70;46.50;;;;;;4982579;28;87611;-84
2023/06/16 09:06:19;;;;;;;10.07;3.75;;;24.80;46.90;;;;;;4984621;28;87559;-82
2023/06/16 09:08:44;;;;;;;12.30;4.25;;;24.80;47.50;;;;;;4982249;28;87907;-83
2023/06/16 09:11:10;;;;;;;10.50;4.20;;;24.80;47.50;;;;;;4986908;28;88040;-83
2023/06/16 09:13:41;;;;;;;10.63;4.60;;;24.90;48.10;;;;;;4982577;28;91549;-84
2023/06/16 09:16:09;;;;;;;7.38;3.92;;;24.90;47.60;;;;;;4980754;28;87214;-83
2023/06/16 09:18:41;;;;;;;10.65;4.22;;;24.90;47.50;;;;;;4980127;28;90296;-84
2023/06/16 09:21:08;;;;;;;8.48;4.03;;;24.80;47.30;;;;;;4985719;28;88719;-84
2023/06/16 09:23:35;;;;;;;8.95;4.38;;;24.80;47.40;;;;;;4986552;28;88160;-84
2023/06/16 09:26:08;;;;;;;8.90;4.18;;;24.80;47.50;;;;;;4986294;28;87931;-84
2023/06/16 09:28:36;;;;;;;8.75;4.07;;;24.70;47.00;;;;;;4984576;28;87874;-84
2023/06/16 09:31:05;;;;;;;7.78;4.00;;;24.80;47.40;;;;;;4985249;28;87522;-86
2023/06/16 09:33:31;;;;;;;7.73;4.03;;;24.80;47.50;;;;;;4981884;28;87274;-85
2023/06/16 09:35:57;;;;;;;10.85;3.97;;;24.80;47.00;;;;;;4983236;28;87639;-83
2023/06/16 09:38:23;;;;;;;8.95;4.47;;;24.80;48.00;;;;;;4982998;28;87936;-83
2023/06/16 09:40:49;;;;;;;9.50;4.18;;;24.80;48.10;;;;;;4982681;28;87955;-84
2023/06/16 09:43:15;;;;;;;7.18;3.97;;;24.80;48.00;;;;;;4975714;28;90307;-84
2023/06/16 09:45:41;;;;;;;11.75;4.93;;;24.80;48.20;;;;;;4966616;28;89819;-84
2023/06/16 09:48:10;;;;;;;8.75;3.80;;;24.80;54.70;;;;;;4985489;28;87643;-83
2023/06/16 09:50:36;;;;;;;8.17;4.33;;;24.80;48.00;;;;;;4988791;28;90273;-83
2023/06/16 09:53:06;;;;;;;48.03;17.67;;;24.80;47.60;;;;;;4998620;22;87082;-86
2023/06/16 09:55:40;;;;;;;30.10;8.55;;;24.90;47.90;;;;;;4968707;28;87634;-86
2023/06/16 09:58:06;;;;;;;19.77;9.75;;;24.80;48.70;;;;;;4963739;28;88031;-86
2023/06/16 10:00:33;;;;;;;19.00;8.57;;;24.80;48.10;;;;;;4966659;28;90507;-86
2023/06/16 10:03:01;;;;;;;27.08;10.35;;;24.80;48.40;;;;;;4985789;28;88509;-86
2023/06/16 10:05:31;;;;;;;22.63;9.63;;;24.80;48.50;;;;;;4995749;28;88954;-87
2023/06/16 10:07:57;;;;;;;32.97;9.32;;;24.80;48.40;;;;;;4995919;28;87680;-85
2023/06/16 10:10:28;;;;;;;27.48;10.32;;;24.70;48.50;;;;;;4997502;28;89345;-85
2023/06/16 10:12:55;;;;;;;26.20;10.30;;;24.70;48.70;;;;;;4997905;28;88517;-86
2023/06/16 10:15:23;;;;;;;23.50;9.10;;;24.70;48.70;;;;;;4994540;28;87081;-85
2023/06/16 10:17:50;;;;;;;21.55;8.80;;;24.70;48.70;;;;;;4997311;28;88263;-85
2023/06/16 10:20:18;;;;;;;16.75;9.00;;;24.70;48.90;;;;;;4996276;28;88157;-86
2023/06/16 10:22:46;;;;;;;16.58;8.52;;;24.70;48.90;;;;;;4996752;28;87894;-88
2023/06/16 10:25:11;;;;;;;25.98;8.68;;;24.70;48.90;;;;;;4998077;28;87857;-92
2023/06/16 10:27:39;;;;;;;17.63;7.50;;;24.80;49.20;;;;;;4994284;28;87714;-89
2023/06/16 10:30:09;;;;;;;21.55;8.15;;;24.80;49.10;;;;;;5004963;28;87954;-88
2023/06/16 10:32:35;;;;;;;18.77;8.32;;;24.90;48.90;;;;;;5027484;28;86839;-93
2023/06/16 10:35:01;;;;;;;27.25;7.97;;;24.90;49.00;;;;;;5013330;28;88387;-93
2023/06/16 10:37:28;;;;;;;16.73;7.32;;;24.90;48.70;;;;;;4996666;28;88198;-91
2023/06/16 10:40:03;;;;;;;15.57;7.82;;;24.90;49.10;;;;;;5007257;28;90273;-91
2023/06/16 10:42:34;;;;;;;19.35;7.82;;;25.00;49.20;;;;;;5011027;28;87807;-90
2023/06/16 10:45:26;;;;;;;23.38;7.35;;;25.00;50.10;;;;;;4999040;28;88372;-85
2023/06/16 10:48:02;;;;;;;17.13;7.80;;;25.00;51.20;;;;;;4993131;28;87728;-89
2023/06/16 10:50:39;;;;;;;16.05;7.68;;;25.00;51.70;;;;;;4986213;28;90041;-92
2023/06/16 10:53:13;;;;;;;16.42;7.68;;;25.00;52.40;;;;;;4996731;28;90363;-88
2023/06/16 10:55:42;;;;;;;18.88;8.00;;;25.00;52.70;;;;;;4996771;28;87624;-92
2023/06/16 10:58:16;;;;;;;14.13;7.82;;;25.10;53.30;;;;;;4998703;28;87789;-85
2023/06/16 11:00:42;;;;;;;17.90;7.43;;;25.10;53.90;;;;;;4997711;28;89750;-88
2023/06/16 11:03:07;;;;;;;19.08;7.63;;;25.20;53.40;;;;;;4998136;28;91042;-86
2023/06/16 11:05:40;;;;;;;20.30;7.40;;;25.20;53.50;;;;;;4998367;28;87921;-90
2023/06/16 11:08:09;;;;;;;18.42;8.48;;;25.20;53.20;;;;;;4989831;28;89221;-89
2023/06/16 11:10:50;;;;;;;18.40;7.95;;;25.20;53.30;;;;;;5007297;27;90954;-90
2023/06/16 11:13:23;;;;;;;13.93;6.45;;;25.30;53.40;;;;;;5008123;28;90674;-89
2023/06/16 11:15:52;;;;;;;13.45;7.03;;;25.40;53.10;;;;;;4962778;28;88344;-90
2023/06/16 11:18:17;;;;;;;16.63;6.83;;;25.60;53.30;;;;;;4959490;28;89324;-90
2023/06/16 11:20:43;;;;;;;15.85;7.43;;;25.60;53.00;;;;;;4971582;28;91076;-87
2023/06/16 11:23:09;;;;;;;13.95;7.32;;;25.50;53.40;;;;;;5005413;28;89097;-87
2023/06/16 11:25:37;;;;;;;17.33;6.90;;;25.50;55.10;;;;;;5003874;28;88964;-91
2023/06/16 11:28:04;;;;;;;13.68;6.95;;;25.50;55.80;;;;;;5001268;28;87987;-84
2023/06/16 11:30:30;;;;;;;14.68;6.93;;;25.50;56.20;;;;;;5005848;28;88506;-92
2023/06/16 11:32:57;;;;;;;17.52;6.35;;;25.50;57.30;;;;;;4997575;28;88559;-85
2023/06/16 11:35:40;;;;;;;13.18;7.13;;;25.40;56.40;;;;;;5013064;28;88055;-88
2023/06/16 11:38:08;;;;;;;12.60;6.65;;;25.40;56.40;;;;;;4988031;28;89150;-88
2023/06/16 11:40:35;;;;;;;12.02;6.70;;;25.40;55.90;;;;;;4989059;28;89669;-88
2023/06/16 11:43:05;;;;;;;13.30;6.72;;;25.40;55.70;;;;;;5000686;28;90557;-90
2023/06/16 11:45:37;;;;;;;10.10;6.85;;;25.40;55.30;;;;;;5003323;28;87886;-91
2023/06/16 11:48:04;;;;;;;11.73;6.80;;;25.30;55.00;;;;;;5001953;28;88292;-88
2023/06/16 11:50:30;;;;;;;12.45;6.80;;;25.30;54.80;;;;;;4999496;28;91537;-91
2023/06/16 11:52:56;;;;;;;10.57;6.38;;;25.30;54.60;;;;;;4999658;28;91637;-89
2023/06/16 11:55:23;;;;;;;12.70;5.72;;;25.30;54.40;;;;;;5006984;28;88380;-88
2023/06/16 11:57:49;;;;;;;10.07;6.03;;;25.30;54.50;;;;;;5016650;28;89491;-90
2023/06/16 12:00:16;;;;;;;8.50;6.13;;;25.30;54.50;;;;;;5014026;28;90536;-86
2023/06/16 12:02:45;;;;;;;10.73;5.85;;;25.30;54.50;;;;;;4988701;28;90524;-88
2023/06/16 12:05:19;;;;;;;13.68;6.32;;;25.20;53.70;;;;;;5005283;28;88040;-86
2023/06/16 12:07:46;;;;;;;11.63;7.00;;;25.20;53.60;;;;;;5007961;28;90179;-91
2023/06/16 12:10:12;;;;;;;12.10;5.85;;;25.10;53.60;;;;;;5005439;28;90832;-88
2023/06/16 12:12:38;;;;;;;15.40;8.20;;;25.10;53.80;;;;;;5001286;28;91188;-90
2023/06/16 12:15:04;;;;;;;22.10;8.27;;;25.10;53.80;;;;;;5000458;28;88520;-86
2023/06/16 12:17:33;;;;;;;16.70;8.60;;;25.00;53.60;;;;;;5006386;28;91096;-88
2023/06/16 12:19:59;;;;;;;23.87;9.20;;;25.00;53.80;;;;;;5007244;28;90906;-91
2023/06/16 12:22:34;;;;;;;21.42;9.73;;;25.00;53.60;;;;;;5007107;28;88634;-89
2023/06/16 12:24:59;;;;;;;24.75;9.40;;;25.00;53.60;;;;;;5009659;28;87817;-91
2023/06/16 12:27:25;;;;;;;22.75;9.77;;;24.90;53.30;;;;;;5006424;28;89516;-86
2023/06/16 12:29:58;;;;;;;24.88;9.45;;;25.00;53.30;;;;;;5006305;28;90371;-92
2023/06/16 12:32:33;;;;;;;22.52;8.95;;;25.00;53.30;;;;;;5011987;28;89858;-86
2023/06/16 12:35:00;;;;;;;18.80;9.55;;;24.90;53.10;;;;;;5008762;28;87627;-85
2023/06/16 12:37:29;;;;;;;25.52;9.23;;;24.90;53.10;;;;;;5007817;28;87740;-86
2023/06/16 12:39:57;;;;;;;24.70;9.93;;;24.90;53.10;;;;;;5008740;28;90294;-85
2023/06/16 12:42:25;;;;;;;22.45;9.13;;;24.90;53.20;;;;;;4999487;28;92372;-87
2023/06/16 12:44:53;;;;;;;25.97;9.37;;;24.90;53.00;;;;;;5005983;28;87951;-88